Aegean Princess — ZDID9 — position and weather

sailwx.info

Track history (hours):
 
Tides and Currents Weather Stations Pressure Air Temp Water Temp Dewpoint Dewpoint Depression Visibility Wind Speed Wind Dir Waves Ship Positions

Aegean Princess

Last reported at 2015-May-27 09:28 UTC. Time now 2015-May-27 09:58 UTC.
Position N 36°07' W 005°21'.

Length 100 m; draft 5.8 m.

Type: Ship. MMSI: 236111476.

Date/timePositionNaut miles runAvg speedWind from/ knotsBaromVisibWave heightAir tempDewpointWater temp
2015-May-27 09:28N 36°07' W 005°21'0 0.0
2015-May-27 08:28N 36°07' W 005°21'0 0.0
2015-May-27 07:28N 36°07' W 005°21'0 0.1
2015-May-27 06:31N 36°07' W 005°21'0 0.0
2015-May-27 05:22N 36°07' W 005°21'2 2.6
2015-May-27 04:24N 36°09' W 005°23'0 0.0
2015-May-27 03:33N 36°09' W 005°23'0 0.0
2015-May-27 02:27N 36°09' W 005°23'0 0.0
2015-May-27 01:15N 36°09' W 005°23'0 0.0
2015-May-27 00:15N 36°09' W 005°23'0 0.0
2015-May-26 23:27N 36°09' W 005°23'0 0.0
2015-May-26 22:24N 36°09' W 005°23'1 0.7
2015-May-26 21:32N 36°09' W 005°23'1 1.2
2015-May-26 20:32N 36°07' W 005°22'0 0.1
2015-May-26 19:14N 36°08' W 005°22'0 0.3
2015-May-26 18:26N 36°08' W 005°22'0 0.0
2015-May-26 17:32N 36°08' W 005°22'0 0.1
2015-May-26 16:29N 36°08' W 005°22'0 0.1
2015-May-26 15:32N 36°08' W 005°22'0 0.2
2015-May-26 14:32N 36°08' W 005°22'1 0.6
2015-May-26 13:33N 36°07' W 005°21'0 0.2
2015-May-26 12:31N 36°07' W 005°21'0 0.1
2015-May-26 11:28N 36°07' W 005°21'0 0.1
2015-May-26 10:31N 36°07' W 005°21'0 0.0
2015-May-26 09:31N 36°07' W 005°21'0 0.0
2015-May-26 08:33N 36°07' W 005°21'2 1.4
2015-May-26 07:29N 36°08' W 005°23'0 0.0
2015-May-26 05:29N 36°08' W 005°23'0 0.0
2015-May-26 04:26N 36°08' W 005°23'0 0.0
2015-May-26 03:32N 36°08' W 005°23'0 0.2
2015-May-26 02:32N 36°08' W 005°23'3 3.2
2015-May-26 01:33N 36°06' W 005°20'1 1.3
2015-May-26 00:31N 36°07' W 005°19'0 0.0
2015-May-25 23:31N 36°07' W 005°19'0 0.2
2015-May-25 22:31N 36°07' W 005°19'0 0.0
2015-May-25 21:34N 36°07' W 005°19'0 0.1
2015-May-25 20:33N 36°07' W 005°19'6 5.5
2015-May-25 19:33N 36°02' W 005°22'8 7.8
2015-May-25 18:34N 35°56' W 005°28'1 0.2
2015-May-25 11:31N 35°56' W 005°30'8 8.6
2015-May-25 10:34N 36°02' W 005°23'6 5.5
2015-May-25 09:32N 36°08' W 005°22'0 0.0
2015-May-25 08:29N 36°08' W 005°22'0 0.2
2015-May-25 06:33N 36°07' W 005°22'1 0.8
2015-May-25 05:32N 36°07' W 005°21'0 0.0
2015-May-25 04:32N 36°07' W 005°21'0 0.1
2015-May-25 03:32N 36°07' W 005°21'0 0.2
2015-May-25 02:29N 36°07' W 005°21'0 0.0
2015-May-25 01:33N 36°07' W 005°21'2 1.8
2015-May-25 00:32N 36°09' W 005°22'0 0.0
2015-May-24 23:29N 36°09' W 005°22'0 0.0
2015-May-24 22:32N 36°09' W 005°22'0 0.0
2015-May-24 21:33N 36°09' W 005°22'1 0.6
2015-May-24 20:32N 36°09' W 005°23'0 0.0
2015-May-24 19:32N 36°09' W 005°23'0 0.0
2015-May-24 18:14N 36°09' W 005°23'0 0.1
2015-May-24 16:32N 36°09' W 005°23'1 1.1
2015-May-24 15:32N 36°08' W 005°22'0 0.1
2015-May-24 14:32N 36°08' W 005°22'0 0.1
2015-May-24 13:29N 36°08' W 005°22'0 0.0
2015-May-24 12:32N 36°08' W 005°22'0 0.1
2015-May-24 11:32N 36°08' W 005°22'0 0.1
2015-May-24 10:32N 36°08' W 005°22'0 0.0
2015-May-24 09:32N 36°08' W 005°22'0 0.0
2015-May-24 08:23N 36°08' W 005°22'1 1.1
2015-May-24 07:17N 36°09' W 005°22'0 0.1
2015-May-24 06:31N 36°09' W 005°22'0 0.0
2015-May-24 05:28N 36°09' W 005°22'0 0.0
2015-May-24 04:22N 36°09' W 005°22'0 0.0
2015-May-24 03:22N 36°09' W 005°22'0 0.0
2015-May-24 01:30N 36°09' W 005°22'1 1.1
2015-May-24 00:32N 36°08' W 005°22'0 0.0
2015-May-23 23:29N 36°08' W 005°22'0 0.0
2015-May-23 22:32N 36°08' W 005°22'0 0.0
2015-May-23 21:32N 36°08' W 005°22'0 0.0
2015-May-23 20:29N 36°08' W 005°22'0 0.0
2015-May-23 19:29N 36°08' W 005°22'0 0.1
2015-May-23 18:29N 36°08' W 005°22'0 0.2
2015-May-23 17:31N 36°08' W 005°22'0 0.1
2015-May-23 16:31N 36°08' W 005°22'0 0.2
2015-May-23 15:26N 36°08' W 005°22'0 0.0
2015-May-23 14:32N 36°08' W 005°22'0 0.0
2015-May-23 13:32N 36°08' W 005°22'0 0.0
2015-May-23 12:32N 36°08' W 005°22'0 0.0
2015-May-23 11:32N 36°08' W 005°22'0 0.0
2015-May-23 10:26N 36°08' W 005°22'0 0.0
2015-May-23 09:26N 36°08' W 005°22'0 0.0
2015-May-23 08:32N 36°08' W 005°22'0 0.0
2015-May-23 07:23N 36°08' W 005°22'0 0.0
2015-May-23 06:32N 36°08' W 005°22'0 0.0
2015-May-23 04:29N 36°08' W 005°22'0 0.0
2015-May-23 03:25N 36°08' W 005°22'0 0.0
2015-May-23 02:31N 36°08' W 005°22'0 0.0
2015-May-23 01:31N 36°08' W 005°22'0 0.0
2015-May-23 00:31N 36°08' W 005°22'0 0.0
2015-May-22 23:28N 36°08' W 005°22'1 0.9
2015-May-22 22:33N 36°09' W 005°22'0 0.0
2015-May-22 21:31N 36°09' W 005°22'0 0.0
2015-May-22 20:33N 36°09' W 005°22'0 0.0
2015-May-22 19:33N 36°09' W 005°22'0 0.0
2015-May-22 18:31N 36°09' W 005°22'0 0.0
2015-May-22 17:25N 36°09' W 005°22'0 0.0
2015-May-22 16:33N 36°09' W 005°22'2 1.4
2015-May-22 15:24N 36°08' W 005°22'0 0.0
2015-May-22 14:33N 36°08' W 005°22'0 0.1
2015-May-22 13:33N 36°08' W 005°22'0 0.2
2015-May-22 12:33N 36°08' W 005°22'2 1.6
2015-May-22 11:33N 36°06' W 005°22'3 2.1
2015-May-22 10:19N 36°07' W 005°19'0 0.0
2015-May-22 09:31N 36°07' W 005°19'0 0.0
2015-May-22 08:31N 36°07' W 005°19'0 0.0
2015-May-22 07:31N 36°07' W 005°19'0 0.0
2015-May-22 06:31N 36°07' W 005°19'0 0.1
2015-May-22 05:31N 36°07' W 005°19'2 2.2
2015-May-22 04:31N 36°07' W 005°22'0 0.0
2015-May-22 03:31N 36°07' W 005°22'0 0.0
2015-May-22 02:31N 36°07' W 005°22'0 0.0
2015-May-22 01:31N 36°07' W 005°22'0 0.1
2015-May-22 00:31N 36°07' W 005°22'0 0.0
2015-May-21 23:31N 36°07' W 005°22'1 0.6
2015-May-21 22:34N 36°07' W 005°22'0 0.1
2015-May-21 21:31N 36°07' W 005°22'0 0.0
2015-May-21 20:31N 36°07' W 005°22'0 0.0
2015-May-21 19:33N 36°07' W 005°22'0 0.2
2015-May-21 18:29N 36°07' W 005°22'0 0.1
2015-May-21 17:20N 36°07' W 005°22'1 1.1
2015-May-21 16:33N 36°08' W 005°22'0 0.2
2015-May-21 15:25N 36°08' W 005°22'0 0.1
2015-May-21 14:31N 36°08' W 005°22'1 0.8
2015-May-21 13:18N 36°09' W 005°23'0 0.0
2015-May-21 11:10N 36°09' W 005°23'0 0.0
2015-May-21 05:33N 36°09' W 005°23'2 2.3
2015-May-21 04:30N 36°07' W 005°22'0 0.0
2015-May-21 03:26N 36°07' W 005°22'0 0.1
2015-May-21 02:32N 36°07' W 005°22'0 0.2
2015-May-21 01:32N 36°07' W 005°22'0 0.1
2015-May-21 00:32N 36°07' W 005°22'0 0.2
2015-May-20 23:32N 36°07' W 005°22'0 0.1
2015-May-20 22:32N 36°07' W 005°22'0 0.2
2015-May-20 21:32N 36°07' W 005°22'0 0.3
2015-May-20 20:33N 36°06' W 005°22'3 2.4
2015-May-20 19:31N 36°07' W 005°19'0 0.0
2015-May-20 18:31N 36°07' W 005°19'0 0.3
2015-May-20 17:33N 36°07' W 005°19'2 2.4
2015-May-20 16:33N 36°07' W 005°22'0 0.2
2015-May-20 15:33N 36°07' W 005°22'0 0.2
2015-May-20 14:33N 36°07' W 005°22'0 0.1
2015-May-20 13:33N 36°07' W 005°22'0 0.0
2015-May-20 12:30N 36°07' W 005°22'0 0.2
2015-May-20 11:09N 36°07' W 005°22'0 0.1
2015-May-20 10:30N 36°07' W 005°22'1 0.5
2015-May-20 09:22N 36°08' W 005°22'0 0.1
2015-May-20 08:31N 36°08' W 005°22'0 0.0
2015-May-20 07:28N 36°08' W 005°22'0 0.1
2015-May-20 06:16N 36°08' W 005°22'0 0.2
2015-May-20 05:31N 36°08' W 005°22'0 0.0
2015-May-20 04:31N 36°08' W 005°22'0 0.0
2015-May-20 03:25N 36°08' W 005°22'0 0.1
2015-May-20 02:34N 36°08' W 005°22'1 1.0
2015-May-20 01:22N 36°07' W 005°21'0 0.0
2015-May-20 00:31N 36°07' W 005°21'0 0.0
2015-May-19 23:25N 36°07' W 005°21'0 0.1
2015-May-19 22:33N 36°07' W 005°21'6 6.5
2015-May-19 21:33N 36°01' W 005°22'  
Track history (hours):
 
Tides and Currents Weather Stations Pressure Air Temp Water Temp Dewpoint Dewpoint Depression Visibility Wind Speed Wind Dir Waves Ship Positions

Aegean Princess

Last reported at 2015-May-27 09:28 UTC. Time now 2015-May-27 09:58 UTC.
Position N 36°07' W 005°21'.

Length 100 m; draft 5.8 m.

Type: Ship. MMSI: 236111476.

Date/timePositionNaut miles runAvg speedWind from/ knotsBaromVisibWave heightAir tempDewpointWater temp
2015-May-27 09:28N 36°07' W 005°21'0 0.0
2015-May-27 08:28N 36°07' W 005°21'0 0.0
2015-May-27 07:28N 36°07' W 005°21'0 0.1
2015-May-27 06:31N 36°07' W 005°21'0 0.0
2015-May-27 05:22N 36°07' W 005°21'2 2.6
2015-May-27 04:24N 36°09' W 005°23'0 0.0
2015-May-27 03:33N 36°09' W 005°23'0 0.0
2015-May-27 02:27N 36°09' W 005°23'0 0.0
2015-May-27 01:15N 36°09' W 005°23'0 0.0
2015-May-27 00:15N 36°09' W 005°23'0 0.0
2015-May-26 23:27N 36°09' W 005°23'0 0.0
2015-May-26 22:24N 36°09' W 005°23'1 0.7
2015-May-26 21:32N 36°09' W 005°23'1 1.2
2015-May-26 20:32N 36°07' W 005°22'0 0.1
2015-May-26 19:14N 36°08' W 005°22'0 0.3
2015-May-26 18:26N 36°08' W 005°22'0 0.0
2015-May-26 17:32N 36°08' W 005°22'0 0.1
2015-May-26 16:29N 36°08' W 005°22'0 0.1
2015-May-26 15:32N 36°08' W 005°22'0 0.2
2015-May-26 14:32N 36°08' W 005°22'1 0.6
2015-May-26 13:33N 36°07' W 005°21'0 0.2
2015-May-26 12:31N 36°07' W 005°21'0 0.1
2015-May-26 11:28N 36°07' W 005°21'0 0.1
2015-May-26 10:31N 36°07' W 005°21'0 0.0
2015-May-26 09:31N 36°07' W 005°21'0 0.0
2015-May-26 08:33N 36°07' W 005°21'2 1.4
2015-May-26 07:29N 36°08' W 005°23'0 0.0
2015-May-26 05:29N 36°08' W 005°23'0 0.0
2015-May-26 04:26N 36°08' W 005°23'0 0.0
2015-May-26 03:32N 36°08' W 005°23'0 0.2
2015-May-26 02:32N 36°08' W 005°23'3 3.2
2015-May-26 01:33N 36°06' W 005°20'1 1.3
2015-May-26 00:31N 36°07' W 005°19'0 0.0
2015-May-25 23:31N 36°07' W 005°19'0 0.2
2015-May-25 22:31N 36°07' W 005°19'0 0.0
2015-May-25 21:34N 36°07' W 005°19'0 0.1
2015-May-25 20:33N 36°07' W 005°19'6 5.5
2015-May-25 19:33N 36°02' W 005°22'8 7.8
2015-May-25 18:34N 35°56' W 005°28'1 0.2
2015-May-25 11:31N 35°56' W 005°30'8 8.6
2015-May-25 10:34N 36°02' W 005°23'6 5.5
2015-May-25 09:32N 36°08' W 005°22'0 0.0
2015-May-25 08:29N 36°08' W 005°22'0 0.2
2015-May-25 06:33N 36°07' W 005°22'1 0.8
2015-May-25 05:32N 36°07' W 005°21'0 0.0
2015-May-25 04:32N 36°07' W 005°21'0 0.1
2015-May-25 03:32N 36°07' W 005°21'0 0.2
2015-May-25 02:29N 36°07' W 005°21'0 0.0
2015-May-25 01:33N 36°07' W 005°21'2 1.8
2015-May-25 00:32N 36°09' W 005°22'0 0.0
2015-May-24 23:29N 36°09' W 005°22'0 0.0
2015-May-24 22:32N 36°09' W 005°22'0 0.0
2015-May-24 21:33N 36°09' W 005°22'1 0.6
2015-May-24 20:32N 36°09' W 005°23'0 0.0
2015-May-24 19:32N 36°09' W 005°23'0 0.0
2015-May-24 18:14N 36°09' W 005°23'0 0.1
2015-May-24 16:32N 36°09' W 005°23'1 1.1
2015-May-24 15:32N 36°08' W 005°22'0 0.1
2015-May-24 14:32N 36°08' W 005°22'0 0.1
2015-May-24 13:29N 36°08' W 005°22'0 0.0
2015-May-24 12:32N 36°08' W 005°22'0 0.1
2015-May-24 11:32N 36°08' W 005°22'0 0.1
2015-May-24 10:32N 36°08' W 005°22'0 0.0
2015-May-24 09:32N 36°08' W 005°22'0 0.0
2015-May-24 08:23N 36°08' W 005°22'1 1.1
2015-May-24 07:17N 36°09' W 005°22'0 0.1
2015-May-24 06:31N 36°09' W 005°22'0 0.0
2015-May-24 05:28N 36°09' W 005°22'0 0.0
2015-May-24 04:22N 36°09' W 005°22'0 0.0
2015-May-24 03:22N 36°09' W 005°22'0 0.0
2015-May-24 01:30N 36°09' W 005°22'1 1.1
2015-May-24 00:32N 36°08' W 005°22'0 0.0
2015-May-23 23:29N 36°08' W 005°22'0 0.0
2015-May-23 22:32N 36°08' W 005°22'0 0.0
2015-May-23 21:32N 36°08' W 005°22'0 0.0
2015-May-23 20:29N 36°08' W 005°22'0 0.0
2015-May-23 19:29N 36°08' W 005°22'0 0.1
2015-May-23 18:29N 36°08' W 005°22'0 0.2
2015-May-23 17:31N 36°08' W 005°22'0 0.1
2015-May-23 16:31N 36°08' W 005°22'0 0.2
2015-May-23 15:26N 36°08' W 005°22'0 0.0
2015-May-23 14:32N 36°08' W 005°22'0 0.0
2015-May-23 13:32N 36°08' W 005°22'0 0.0
2015-May-23 12:32N 36°08' W 005°22'0 0.0
2015-May-23 11:32N 36°08' W 005°22'0 0.0
2015-May-23 10:26N 36°08' W 005°22'0 0.0
2015-May-23 09:26N 36°08' W 005°22'0 0.0
2015-May-23 08:32N 36°08' W 005°22'0 0.0
2015-May-23 07:23N 36°08' W 005°22'0 0.0
2015-May-23 06:32N 36°08' W 005°22'0 0.0
2015-May-23 04:29N 36°08' W 005°22'0 0.0
2015-May-23 03:25N 36°08' W 005°22'0 0.0
2015-May-23 02:31N 36°08' W 005°22'0 0.0
2015-May-23 01:31N 36°08' W 005°22'0 0.0
2015-May-23 00:31N 36°08' W 005°22'0 0.0
2015-May-22 23:28N 36°08' W 005°22'1 0.9
2015-May-22 22:33N 36°09' W 005°22'0 0.0
2015-May-22 21:31N 36°09' W 005°22'0 0.0
2015-May-22 20:33N 36°09' W 005°22'0 0.0
2015-May-22 19:33N 36°09' W 005°22'0 0.0
2015-May-22 18:31N 36°09' W 005°22'0 0.0
2015-May-22 17:25N 36°09' W 005°22'0 0.0
2015-May-22 16:33N 36°09' W 005°22'2 1.4
2015-May-22 15:24N 36°08' W 005°22'0 0.0
2015-May-22 14:33N 36°08' W 005°22'0 0.1
2015-May-22 13:33N 36°08' W 005°22'0 0.2
2015-May-22 12:33N 36°08' W 005°22'2 1.6
2015-May-22 11:33N 36°06' W 005°22'3 2.1
2015-May-22 10:19N 36°07' W 005°19'0 0.0
2015-May-22 09:31N 36°07' W 005°19'0 0.0
2015-May-22 08:31N 36°07' W 005°19'0 0.0
2015-May-22 07:31N 36°07' W 005°19'0 0.0
2015-May-22 06:31N 36°07' W 005°19'0 0.1
2015-May-22 05:31N 36°07' W 005°19'2 2.2
2015-May-22 04:31N 36°07' W 005°22'0 0.0
2015-May-22 03:31N 36°07' W 005°22'0 0.0
2015-May-22 02:31N 36°07' W 005°22'0 0.0
2015-May-22 01:31N 36°07' W 005°22'0 0.1
2015-May-22 00:31N 36°07' W 005°22'0 0.0
2015-May-21 23:31N 36°07' W 005°22'1 0.6
2015-May-21 22:34N 36°07' W 005°22'0 0.1
2015-May-21 21:31N 36°07' W 005°22'0 0.0
2015-May-21 20:31N 36°07' W 005°22'0 0.0
2015-May-21 19:33N 36°07' W 005°22'0 0.2
2015-May-21 18:29N 36°07' W 005°22'0 0.1
2015-May-21 17:20N 36°07' W 005°22'1 1.1
2015-May-21 16:33N 36°08' W 005°22'0 0.2
2015-May-21 15:25N 36°08' W 005°22'0 0.1
2015-May-21 14:31N 36°08' W 005°22'1 0.8
2015-May-21 13:18N 36°09' W 005°23'0 0.0
2015-May-21 11:10N 36°09' W 005°23'0 0.0
2015-May-21 05:33N 36°09' W 005°23'2 2.3
2015-May-21 04:30N 36°07' W 005°22'0 0.0
2015-May-21 03:26N 36°07' W 005°22'0 0.1
2015-May-21 02:32N 36°07' W 005°22'0 0.2
2015-May-21 01:32N 36°07' W 005°22'0 0.1
2015-May-21 00:32N 36°07' W 005°22'0 0.2
2015-May-20 23:32N 36°07' W 005°22'0 0.1
2015-May-20 22:32N 36°07' W 005°22'0 0.2
2015-May-20 21:32N 36°07' W 005°22'0 0.3
2015-May-20 20:33N 36°06' W 005°22'3 2.4
2015-May-20 19:31N 36°07' W 005°19'0 0.0
2015-May-20 18:31N 36°07' W 005°19'0 0.3
2015-May-20 17:33N 36°07' W 005°19'2 2.4
2015-May-20 16:33N 36°07' W 005°22'0 0.2
2015-May-20 15:33N 36°07' W 005°22'0 0.2
2015-May-20 14:33N 36°07' W 005°22'0 0.1
2015-May-20 13:33N 36°07' W 005°22'0 0.0
2015-May-20 12:30N 36°07' W 005°22'0 0.2
2015-May-20 11:09N 36°07' W 005°22'0 0.1
2015-May-20 10:30N 36°07' W 005°22'1 0.5
2015-May-20 09:22N 36°08' W 005°22'0 0.1
2015-May-20 08:31N 36°08' W 005°22'0 0.0
2015-May-20 07:28N 36°08' W 005°22'0 0.1
2015-May-20 06:16N 36°08' W 005°22'0 0.2
2015-May-20 05:31N 36°08' W 005°22'0 0.0
2015-May-20 04:31N 36°08' W 005°22'0 0.0
2015-May-20 03:25N 36°08' W 005°22'0 0.1
2015-May-20 02:34N 36°08' W 005°22'1 1.0
2015-May-20 01:22N 36°07' W 005°21'0 0.0
2015-May-20 00:31N 36°07' W 005°21'0 0.0
2015-May-19 23:25N 36°07' W 005°21'0 0.1
2015-May-19 22:33N 36°07' W 005°21'6 6.5
2015-May-19 21:33N 36°01' W 005°22'  

Dump ship's entire track history